Time,TemperatureF,DewpointF,PressureIn,WindDirection,WindDirectionDegrees,WindSpeedMPH,WindSpeedGustMPH,Humidity,HourlyPrecipIn,Conditions,Clouds,dailyrainin,SoftwareType,DateUTC
2013-03-02 00:08:00,35.0,28.0,29.64,NW,311,0.0,-999.0,77,-99.99,,,0.00,weatherlink.com 1.10,2013-03-02 05:08:00,
2013-03-02 00:23:00,34.9,28.0,29.64,NW,308,0.0,-999.0,77,-99.99,,,0.00,weatherlink.com 1.10,2013-03-02 05:23:00,
2013-03-02 00:38:00,34.8,29.0,29.64,WNW,294,0.0,-999.0,78,-99.99,,,0.00,weatherlink.com 1.10,2013-03-02 05:38:00,
2013-03-02 00:53:00,34.7,28.0,29.64,WNW,297,0.0,-999.0,77,-99.99,,,0.00,weatherlink.com 1.10,2013-03-02 05:53:00,
2013-03-02 01:08:00,34.6,28.0,29.64,North,355,0.0,-999.0,78,-99.99,,,0.00,weatherlink.com 1.10,2013-03-02 06:08:00,
2013-03-02 01:23:00,34.6,28.0,29.63,NW,314,0.0,-999.0,78,-99.99,,,0.00,weatherlink.com 1.10,2013-03-02 06:23:00,
2013-03-02 01:38:00,34.4,28.0,29.63,West,279,0.0,-999.0,78,-99.99,,,0.00,weatherlink.com 1.10,2013-03-02 06:38:00,
2013-03-02 02:08:00,34.1,28.0,29.63,WNW,286,0.0,-999.0,79,-99.99,,,0.00,weatherlink.com 1.10,2013-03-02 07:08:00,
2013-03-02 02:38:00,33.9,28.0,29.62,WNW,300,0.0,-999.0,79,-99.99,,,0.00,weatherlink.com 1.10,2013-03-02 07:38:00,
2013-03-02 02:53:00,33.7,28.0,29.62,WNW,300,0.0,-999.0,80,-99.99,,,0.00,weatherlink.com 1.10,2013-03-02 07:53:00,
2013-03-02 03:08:00,33.7,28.0,29.62,NW,313,0.0,-999.0,80,-99.99,,,0.00,weatherlink.com 1.10,2013-03-02 08:08:00,
2013-03-02 03:23:00,33.8,30.0,29.62,WNW,285,0.0,-999.0,85,-99.99,,,0.00,weatherlink.com 1.10,2013-03-02 08:23:00,
2013-03-02 03:38:00,33.8,28.0,29.63,NW,308,0.0,-999.0,79,-99.99,,,0.00,weatherlink.com 1.10,2013-03-02 08:38:00,
2013-03-02 03:53:00,33.8,28.0,29.63,West,259,0.0,-999.0,78,-99.99,,,0.00,weatherlink.com 1.10,2013-03-02 08:53:00,
2013-03-02 04:08:00,33.8,28.0,29.63,WNW,292,0.0,-999.0,78,-99.99,,,0.00,weatherlink.com 1.10,2013-03-02 09:08:00,
2013-03-02 04:23:00,33.8,28.0,29.63,NW,306,0.0,-999.0,78,-99.99,,,0.00,weatherlink.com 1.10,2013-03-02 09:23:00,
2013-03-02 04:38:00,33.7,28.0,29.63,NW,315,0.0,-999.0,78,-99.99,,,0.00,weatherlink.com 1.10,2013-03-02 09:38:00,
2013-03-02 04:53:00,33.5,27.0,29.63,NW,312,0.0,-999.0,78,-99.99,,,0.00,weatherlink.com 1.10,2013-03-02 09:53:00,
2013-03-02 05:09:00,33.4,27.0,29.63,WNW,291,0.0,-999.0,78,-99.99,,,0.00,weatherlink.com 1.10,2013-03-02 10:09:00,
2013-03-02 05:23:00,33.2,27.0,29.62,NW,313,0.0,-999.0,78,-99.99,,,0.00,weatherlink.com 1.10,2013-03-02 10:23:00,
2013-03-02 05:39:00,32.8,27.0,29.62,NW,309,0.0,-999.0,78,-99.99,,,0.00,weatherlink.com 1.10,2013-03-02 10:39:00,
2013-03-02 05:54:00,32.4,27.0,29.63,NW,308,0.0,-999.0,79,-99.99,,,0.00,weatherlink.com 1.10,2013-03-02 10:54:00,
2013-03-02 06:08:00,31.8,26.0,29.62,NW,308,0.0,-999.0,80,-99.99,,,0.00,weatherlink.com 1.10,2013-03-02 11:08:00,
2013-03-02 06:23:00,31.2,26.0,29.63,WNW,296,0.0,-999.0,82,-99.99,,,0.00,weatherlink.com 1.10,2013-03-02 11:23:00,
2013-03-02 06:38:00,30.5,26.0,29.63,West,280,0.0,-999.0,84,-99.99,,,0.00,weatherlink.com 1.10,2013-03-02 11:38:00,
2013-03-02 06:53:00,30.0,26.0,29.63,West,277,0.0,-999.0,85,-99.99,,,0.00,weatherlink.com 1.10,2013-03-02 11:53:00,
2013-03-02 07:08:00,29.6,26.0,29.63,West,276,0.0,-999.0,86,-99.99,,,0.00,weatherlink.com 1.10,2013-03-02 12:08:00,
2013-03-02 07:23:00,29.8,26.0,29.63,WNW,288,0.0,-999.0,87,-99.99,,,0.00,weatherlink.com 1.10,2013-03-02 12:23:00,
2013-03-02 07:38:00,33.1,28.0,29.64,West,275,0.0,-999.0,80,-99.99,,,0.00,weatherlink.com 1.10,2013-03-02 12:38:00,
2013-03-02 07:53:00,34.2,28.0,29.63,NNW,330,0.0,-999.0,77,-99.99,,,0.00,weatherlink.com 1.10,2013-03-02 12:53:00,
2013-03-02 08:08:00,35.0,28.0,29.63,WNW,298,0.0,-999.0,74,-99.99,,,0.00,weatherlink.com 1.10,2013-03-02 13:08:00,
2013-03-02 08:24:00,35.6,28.0,29.63,NW,310,0.0,-999.0,73,-99.99,,,0.00,weatherlink.com 1.10,2013-03-02 13:24:00,
2013-03-02 08:38:00,36.0,28.0,29.62,NNW,335,0.0,-999.0,72,-99.99,,,0.00,weatherlink.com 1.10,2013-03-02 13:38:00,
2013-03-02 08:53:00,36.8,28.0,29.63,NNE,13,0.0,-999.0,71,-99.99,,,0.00,weatherlink.com 1.10,2013-03-02 13:53:00,
2013-03-02 09:08:00,37.0,28.0,29.63,WNW,296,0.0,-999.0,70,-99.99,,,0.00,weatherlink.com 1.10,2013-03-02 14:08:00,
2013-03-02 09:23:00,37.4,28.0,29.63,WNW,283,0.0,-999.0,70,-99.99,,,0.00,weatherlink.com 1.10,2013-03-02 14:23:00,
2013-03-02 09:39:00,37.6,28.0,29.63,NNE,32,0.0,-999.0,68,-99.99,,,0.00,weatherlink.com 1.10,2013-03-02 14:39:00,
2013-03-02 09:54:00,37.7,28.0,29.62,NNE,30,0.0,-999.0,69,-99.99,,,0.00,weatherlink.com 1.10,2013-03-02 14:54:00,
2013-03-02 10:08:00,37.9,28.0,29.63,WNW,299,0.0,-999.0,68,-99.99,,,0.00,weatherlink.com 1.10,2013-03-02 15:08:00,
2013-03-02 10:24:00,37.8,28.0,29.63,NNW,340,0.0,-999.0,69,-99.99,,,0.00,weatherlink.com 1.10,2013-03-02 15:24:00,
2013-03-02 10:39:00,37.9,29.0,29.63,NE,36,0.0,-999.0,69,-99.99,,,0.00,weatherlink.com 1.10,2013-03-02 15:39:00,
2013-03-02 10:54:00,38.5,29.0,29.62,NW,309,0.0,-999.0,68,-99.99,,,0.00,weatherlink.com 1.10,2013-03-02 15:54:00,
2013-03-02 11:09:00,38.9,29.0,29.62,West,271,0.0,-999.0,67,-99.99,,,0.00,weatherlink.com 1.10,2013-03-02 16:09:00,
2013-03-02 11:24:00,39.1,29.0,29.62,NNW,342,0.0,-999.0,67,-99.99,,,0.00,weatherlink.com 1.10,2013-03-02 16:24:00,
2013-03-02 11:39:00,39.9,29.0,29.61,NNE,19,0.0,-999.0,66,-99.99,,,0.00,weatherlink.com 1.10,2013-03-02 16:39:00,
2013-03-02 11:54:00,39.5,29.0,29.61,NE,39,0.0,-999.0,67,-99.99,,,0.00,weatherlink.com 1.10,2013-03-02 16:54:00,
2013-03-02 12:09:00,39.7,30.0,29.61,NNW,328,0.0,-999.0,68,-99.99,,,0.00,weatherlink.com 1.10,2013-03-02 17:09:00,
2013-03-02 12:24:00,39.9,29.0,29.60,NNE,22,0.0,-999.0,66,-99.99,,,0.00,weatherlink.com 1.10,2013-03-02 17:24:00,
2013-03-02 12:39:00,39.7,30.0,29.60,NNW,336,0.0,-999.0,68,-99.99,,,0.00,weatherlink.com 1.10,2013-03-02 17:39:00,
2013-03-02 12:54:00,40.1,30.0,29.59,West,271,0.0,-999.0,67,-99.99,,,0.00,weatherlink.com 1.10,2013-03-02 17:54:00,
2013-03-02 13:09:00,39.8,30.0,29.59,NE,42,0.0,-999.0,69,-99.99,,,0.00,weatherlink.com 1.10,2013-03-02 18:09:00,
2013-03-02 13:24:00,39.9,30.0,29.59,NW,304,0.0,-999.0,69,-99.99,,,0.00,weatherlink.com 1.10,2013-03-02 18:24:00,
2013-03-02 13:39:00,40.0,31.0,29.59,North,360,0.0,-999.0,69,-99.99,,,0.00,weatherlink.com 1.10,2013-03-02 18:39:00,
2013-03-02 13:54:00,40.2,31.0,29.59,WNW,286,0.0,-999.0,69,-99.99,,,0.00,weatherlink.com 1.10,2013-03-02 18:54:00,
2013-03-02 14:09:00,40.2,31.0,29.59,NE,36,0.0,-999.0,69,-99.99,,,0.00,weatherlink.com 1.10,2013-03-02 19:09:00,
2013-03-02 14:24:00,39.7,31.0,29.59,NNE,21,0.0,-999.0,70,-99.99,,,0.00,weatherlink.com 1.10,2013-03-02 19:24:00,
2013-03-02 14:39:00,39.9,30.0,29.59,NW,317,0.0,-999.0,69,-99.99,,,0.00,weatherlink.com 1.10,2013-03-02 19:39:00,
2013-03-02 14:54:00,39.9,31.0,29.59,NW,322,0.0,-999.0,70,-99.99,,,0.00,weatherlink.com 1.10,2013-03-02 19:54:00,
2013-03-02 15:09:00,39.8,31.0,29.59,NW,319,0.0,-999.0,70,-99.99,,,0.00,weatherlink.com 1.10,2013-03-02 20:09:00,
2013-03-02 15:24:00,39.9,30.0,29.59,NW,321,0.0,-999.0,69,-99.99,,,0.00,weatherlink.com 1.10,2013-03-02 20:24:00,
2013-03-02 15:39:00,39.9,30.0,29.59,NW,321,0.0,-999.0,69,-99.99,,,0.00,weatherlink.com 1.10,2013-03-02 20:39:00,
2013-03-02 15:54:00,39.9,30.0,29.59,NW,321,0.0,-999.0,69,-99.99,,,0.00,weatherlink.com 1.10,2013-03-02 20:54:00,
2013-03-02 16:09:00,39.8,31.0,29.58,NW,319,0.0,-999.0,71,-99.99,,,0.00,weatherlink.com 1.10,2013-03-02 21:09:00,
2013-03-02 16:24:00,39.5,30.0,29.59,West,269,0.0,-999.0,70,-99.99,,,0.00,weatherlink.com 1.10,2013-03-02 21:24:00,
2013-03-02 16:39:00,39.7,29.0,29.59,WSW,254,0.0,-999.0,67,-99.99,,,0.00,weatherlink.com 1.10,2013-03-02 21:39:00,
2013-03-02 16:54:00,39.3,29.0,29.59,NNW,327,0.0,-999.0,68,-99.99,,,0.00,weatherlink.com 1.10,2013-03-02 21:54:00,
2013-03-02 17:09:00,38.8,29.0,29.59,West,275,0.0,-999.0,69,-99.99,,,0.00,weatherlink.com 1.10,2013-03-02 22:09:00,
2013-03-02 17:24:00,38.6,29.0,29.60,WNW,296,0.0,-999.0,69,-99.99,,,0.00,weatherlink.com 1.10,2013-03-02 22:24:00,
2013-03-02 17:39:00,38.4,29.0,29.60,NW,313,0.0,-999.0,69,-99.99,,,0.00,weatherlink.com 1.10,2013-03-02 22:39:00,
2013-03-02 17:54:00,38.0,29.0,29.60,West,273,0.0,-999.0,71,-99.99,,,0.00,weatherlink.com 1.10,2013-03-02 22:54:00,
2013-03-02 18:09:00,37.9,29.0,29.60,West,278,0.0,-999.0,71,-99.99,,,0.00,weatherlink.com 1.10,2013-03-02 23:09:00,
2013-03-02 18:24:00,37.8,29.0,29.61,West,261,0.0,-999.0,71,-99.99,,,0.00,weatherlink.com 1.10,2013-03-02 23:24:00,
2013-03-02 18:54:00,37.7,28.0,29.61,NW,326,0.0,-999.0,69,-99.99,,,0.00,weatherlink.com 1.10,2013-03-02 23:54:00,
2013-03-02 19:09:00,37.5,27.0,29.61,NW,322,0.0,-999.0,67,-99.99,,,0.00,weatherlink.com 1.10,2013-03-03 00:09:00,
2013-03-02 19:24:00,37.4,27.0,29.61,NNW,338,0.0,-999.0,67,-99.99,,,0.00,weatherlink.com 1.10,2013-03-03 00:24:00,
2013-03-02 19:39:00,37.1,27.0,29.61,NNW,333,0.0,-999.0,66,-99.99,,,0.00,weatherlink.com 1.10,2013-03-03 00:39:00,
2013-03-02 19:54:00,36.9,27.0,29.62,NNW,338,0.0,-999.0,67,-99.99,,,0.00,weatherlink.com 1.10,2013-03-03 00:54:00,
2013-03-02 20:09:00,36.6,28.0,29.63,NW,309,0.0,-999.0,72,-99.99,,,0.00,weatherlink.com 1.10,2013-03-03 01:09:00,
2013-03-02 20:24:00,36.3,27.0,29.63,WNW,297,0.0,-999.0,68,-99.99,,,0.00,weatherlink.com 1.10,2013-03-03 01:24:00,
2013-03-02 20:39:00,36.1,26.0,29.63,North,355,0.0,-999.0,68,-99.99,,,0.00,weatherlink.com 1.10,2013-03-03 01:39:00,
2013-03-02 20:54:00,35.8,27.0,29.63,NNW,342,0.0,-999.0,69,-99.99,,,0.00,weatherlink.com 1.10,2013-03-03 01:54:00,
2013-03-02 21:09:00,35.5,27.0,29.62,NW,318,0.0,-999.0,71,-99.99,,,0.00,weatherlink.com 1.10,2013-03-03 02:09:00,
2013-03-02 21:24:00,35.3,27.0,29.63,North,5,0.0,-999.0,71,-99.99,,,0.00,weatherlink.com 1.10,2013-03-03 02:24:00,
2013-03-02 21:39:00,35.2,27.0,29.62,WNW,294,0.0,-999.0,71,-99.99,,,0.00,weatherlink.com 1.10,2013-03-03 02:39:00,
2013-03-02 21:54:00,35.0,27.0,29.62,NW,314,0.0,-999.0,72,-99.99,,,0.00,weatherlink.com 1.10,2013-03-03 02:54:00,
2013-03-02 22:09:00,34.8,27.0,29.62,NNW,342,0.0,-999.0,73,-99.99,,,0.00,weatherlink.com 1.10,2013-03-03 03:09:00,
2013-03-02 22:24:00,34.6,27.0,29.62,North,360,0.0,-999.0,73,-99.99,,,0.00,weatherlink.com 1.10,2013-03-03 03:24:00,
2013-03-02 22:39:00,34.4,27.0,29.61,NW,326,0.0,-999.0,73,-99.99,,,0.00,weatherlink.com 1.10,2013-03-03 03:39:00,
2013-03-02 22:54:00,34.3,26.0,29.61,NW,323,0.0,-999.0,73,-99.99,,,0.00,weatherlink.com 1.10,2013-03-03 03:54:00,
2013-03-02 23:09:00,34.1,27.0,29.61,NNE,28,0.0,-999.0,74,-99.99,,,0.00,weatherlink.com 1.10,2013-03-03 04:09:00,
2013-03-02 23:24:00,33.9,26.0,29.60,North,360,0.0,-999.0,74,-99.99,,,0.00,weatherlink.com 1.10,2013-03-03 04:24:00,
2013-03-02 23:39:00,33.7,26.0,29.61,NNW,327,0.0,-999.0,74,-99.99,,,0.00,weatherlink.com 1.10,2013-03-03 04:39:00,
2013-03-02 23:54:00,33.6,26.0,29.60,NNW,346,0.0,-999.0,75,-99.99,,,0.00,weatherlink.com 1.10,2013-03-03 04:54:00,